WZZ275 LZKZ-EDDC
Flight info
| Callsign | WZZ275 |
|---|---|
| Flight time | 0h 57m |
| Altitude | 30000 |
| Route | MARKA DCT MOCON DCT VADEX DCT OGDAS DCT RAVKU M725 HDO |
| Aircraft | A320/M-SDE3FGHIRWY/LB1 |
Departure
| Time | 2026-04-21 15:26 |
|---|---|
| Airport | Košice International Airport (LZKZ) |
Arrival
| Time | 2026-04-21 16:24 |
|---|---|
| Airport | Dresden Airport (EDDC) |
| Time | Latitude | Longitude | Altitude | Speed | Heading |
|---|---|---|---|---|---|
| 2026-04-21 15:07 | 48.67330 | 21.23845 | 758 ft | 0 kts | 233° |
| 2026-04-21 15:21 | 48.67328 | 21.23843 | 757 ft | 1 kts | 220° |
| 2026-04-21 15:21 | 48.67323 | 21.23849 | 752 ft | 1 kts | 154° |
| 2026-04-21 15:21 | 48.67314 | 21.23875 | 755 ft | 7 kts | 117° |
| 2026-04-21 15:21 | 48.67297 | 21.23978 | 757 ft | 12 kts | 103° |
| 2026-04-21 15:22 | 48.67275 | 21.24113 | 754 ft | 14 kts | 103° |
| 2026-04-21 15:22 | 48.67252 | 21.24262 | 756 ft | 16 kts | 103° |
| 2026-04-21 15:22 | 48.67223 | 21.24394 | 755 ft | 13 kts | 128° |
| 2026-04-21 15:22 | 48.67126 | 21.24404 | 758 ft | 17 kts | 195° |
| 2026-04-21 15:23 | 48.66997 | 21.24352 | 759 ft | 21 kts | 193° |
| 2026-04-21 15:23 | 48.66837 | 21.24300 | 760 ft | 26 kts | 192° |
| 2026-04-21 15:23 | 48.66644 | 21.24234 | 758 ft | 31 kts | 193° |
| 2026-04-21 15:23 | 48.66418 | 21.24155 | 755 ft | 36 kts | 193° |
| 2026-04-21 15:24 | 48.66159 | 21.24064 | 756 ft | 40 kts | 193° |
| 2026-04-21 15:24 | 48.65878 | 21.23964 | 757 ft | 42 kts | 193° |
| 2026-04-21 15:24 | 48.65585 | 21.23865 | 756 ft | 44 kts | 192° |
| 2026-04-21 15:24 | 48.65284 | 21.23762 | 757 ft | 44 kts | 193° |
| 2026-04-21 15:25 | 48.64992 | 21.23661 | 758 ft | 25 kts | 193° |
| 2026-04-21 15:25 | 48.64937 | 21.23656 | 754 ft | 2 kts | 221° |
| 2026-04-21 15:25 | 48.64954 | 21.23645 | 757 ft | 5 kts | 359° |
| 2026-04-21 15:25 | 48.65010 | 21.23665 | 758 ft | 24 kts | 13° |
| 2026-04-21 15:26 | 48.65401 | 21.23801 | 756 ft | 88 kts | 13° |
| 2026-04-21 15:26 | 48.66155 | 21.24066 | 754 ft | 134 kts | 13° |
| 2026-04-21 15:26 | 48.67155 | 21.24420 | 1048 ft | 151 kts | 12° |
| 2026-04-21 15:26 | 48.68171 | 21.24773 | 1721 ft | 149 kts | 13° |
| 2026-04-21 15:27 | 48.69210 | 21.25128 | 2254 ft | 160 kts | 12° |
| 2026-04-21 15:27 | 48.70376 | 21.25539 | 2473 ft | 182 kts | 13° |
| 2026-04-21 15:27 | 48.71658 | 21.25986 | 2941 ft | 193 kts | 13° |
| 2026-04-21 15:27 | 48.72961 | 21.26442 | 3591 ft | 195 kts | 13° |
| 2026-04-21 15:28 | 48.74289 | 21.26908 | 4264 ft | 195 kts | 13° |
| 2026-04-21 15:28 | 48.75620 | 21.27371 | 4895 ft | 197 kts | 11° |
| 2026-04-21 15:28 | 48.76986 | 21.27149 | 5431 ft | 206 kts | 335° |
| 2026-04-21 15:28 | 48.77976 | 21.25563 | 5877 ft | 225 kts | 298° |
| 2026-04-21 15:29 | 48.78484 | 21.23160 | 6095 ft | 255 kts | 289° |
| 2026-04-21 15:29 | 48.78903 | 21.20434 | 6681 ft | 270 kts | 286° |
| 2026-04-21 15:29 | 48.79292 | 21.17621 | 7487 ft | 274 kts | 285° |
| 2026-04-21 15:29 | 48.79679 | 21.14778 | 8324 ft | 277 kts | 285° |
| 2026-04-21 15:30 | 48.80080 | 21.11904 | 9163 ft | 278 kts | 286° |
| 2026-04-21 15:30 | 48.80500 | 21.09052 | 9993 ft | 281 kts | 288° |
| 2026-04-21 15:30 | 48.81032 | 21.06134 | 10474 ft | 296 kts | 290° |
| 2026-04-21 15:30 | 48.81673 | 21.03034 | 10713 ft | 317 kts | 291° |
| 2026-04-21 15:31 | 48.82355 | 20.99845 | 11301 ft | 325 kts | 290° |
| 2026-04-21 15:31 | 48.83055 | 20.96559 | 11996 ft | 328 kts | 291° |
| 2026-04-21 15:31 | 48.83751 | 20.93246 | 12763 ft | 330 kts | 289° |
| 2026-04-21 15:31 | 48.84447 | 20.89897 | 13427 ft | 334 kts | 289° |
| 2026-04-21 15:32 | 48.85145 | 20.86493 | 14038 ft | 338 kts | 289° |
| 2026-04-21 15:32 | 48.85837 | 20.83092 | 14614 ft | 342 kts | 290° |
| 2026-04-21 15:32 | 48.86540 | 20.79629 | 15299 ft | 343 kts | 289° |
| 2026-04-21 15:32 | 48.87248 | 20.76143 | 15883 ft | 347 kts | 289° |
| 2026-04-21 15:33 | 48.87961 | 20.72618 | 16477 ft | 350 kts | 289° |
| 2026-04-21 15:33 | 48.88674 | 20.69078 | 17156 ft | 350 kts | 289° |
| 2026-04-21 15:33 | 48.89379 | 20.65543 | 17752 ft | 354 kts | 288° |
| 2026-04-21 15:33 | 48.90071 | 20.61932 | 18282 ft | 359 kts | 287° |
| 2026-04-21 15:34 | 48.90754 | 20.58260 | 18822 ft | 361 kts | 287° |
| 2026-04-21 15:34 | 48.91436 | 20.54553 | 19268 ft | 367 kts | 287° |
| 2026-04-21 15:34 | 48.92125 | 20.50801 | 19802 ft | 370 kts | 287° |
| 2026-04-21 15:34 | 48.92815 | 20.47056 | 20324 ft | 373 kts | 288° |
| 2026-04-21 15:35 | 48.93520 | 20.43247 | 20860 ft | 375 kts | 286° |
| 2026-04-21 15:35 | 48.94235 | 20.39392 | 21376 ft | 378 kts | 287° |
| 2026-04-21 15:35 | 48.94951 | 20.35535 | 21885 ft | 380 kts | 288° |
| 2026-04-21 15:35 | 48.95673 | 20.31639 | 22389 ft | 382 kts | 287° |
| 2026-04-21 15:36 | 48.96386 | 20.27775 | 22821 ft | 386 kts | 287° |
| 2026-04-21 15:36 | 48.97110 | 20.23822 | 23315 ft | 388 kts | 287° |
| 2026-04-21 15:36 | 48.97840 | 20.19840 | 23712 ft | 392 kts | 287° |
| 2026-04-21 15:36 | 48.98574 | 20.15827 | 24112 ft | 394 kts | 287° |
| 2026-04-21 15:37 | 48.99311 | 20.11794 | 24541 ft | 395 kts | 287° |
| 2026-04-21 15:37 | 49.00050 | 20.07737 | 24924 ft | 397 kts | 287° |
| 2026-04-21 15:37 | 49.00778 | 20.03729 | 25341 ft | 398 kts | 287° |
| 2026-04-21 15:37 | 49.01517 | 19.99641 | 25746 ft | 401 kts | 287° |
| 2026-04-21 15:38 | 49.02263 | 19.95515 | 26086 ft | 403 kts | 287° |
| 2026-04-21 15:38 | 49.03009 | 19.91377 | 26454 ft | 406 kts | 286° |
| 2026-04-21 15:38 | 49.03763 | 19.87197 | 26786 ft | 409 kts | 286° |
| 2026-04-21 15:38 | 49.04509 | 19.83058 | 27196 ft | 410 kts | 286° |
| 2026-04-21 15:39 | 49.05269 | 19.78843 | 27559 ft | 412 kts | 287° |
| 2026-04-21 15:39 | 49.06018 | 19.74672 | 27971 ft | 413 kts | 287° |
| 2026-04-21 15:39 | 49.06774 | 19.70434 | 28327 ft | 416 kts | 287° |
| 2026-04-21 15:39 | 49.07535 | 19.66154 | 28628 ft | 419 kts | 286° |
| 2026-04-21 15:40 | 49.08291 | 19.61895 | 28993 ft | 422 kts | 286° |
| 2026-04-21 15:40 | 49.09059 | 19.57554 | 29344 ft | 424 kts | 286° |
| 2026-04-21 15:40 | 49.09831 | 19.53183 | 29712 ft | 426 kts | 287° |
| 2026-04-21 15:40 | 49.10604 | 19.48783 | 30015 ft | 428 kts | 287° |
| 2026-04-21 15:41 | 49.12112 | 19.40189 | 30103 ft | 412 kts | 286° |
| 2026-04-21 15:41 | 49.13588 | 19.31746 | 30092 ft | 412 kts | 286° |
| 2026-04-21 15:42 | 49.15060 | 19.23288 | 30104 ft | 413 kts | 288° |
| 2026-04-21 15:42 | 49.17238 | 19.15200 | 30099 ft | 410 kts | 296° |
| 2026-04-21 15:43 | 49.19600 | 19.07219 | 30111 ft | 410 kts | 296° |
| 2026-04-21 15:43 | 49.21926 | 18.99287 | 30104 ft | 410 kts | 296° |
| 2026-04-21 15:44 | 49.24224 | 18.91433 | 30094 ft | 411 kts | 296° |
| 2026-04-21 15:44 | 49.27336 | 18.84036 | 30085 ft | 410 kts | 309° |
| 2026-04-21 15:45 | 49.30841 | 18.77114 | 30102 ft | 411 kts | 309° |
| 2026-04-21 15:45 | 49.34337 | 18.70152 | 30119 ft | 410 kts | 309° |
| 2026-04-21 15:46 | 49.37817 | 18.63211 | 30098 ft | 411 kts | 309° |
| 2026-04-21 15:46 | 49.41296 | 18.56257 | 30081 ft | 414 kts | 310° |
| 2026-04-21 15:47 | 49.44808 | 18.49202 | 30091 ft | 416 kts | 310° |
| 2026-04-21 15:47 | 49.48312 | 18.42158 | 30096 ft | 418 kts | 309° |
| 2026-04-21 15:48 | 49.51852 | 18.35033 | 30106 ft | 419 kts | 309° |
| 2026-04-21 15:48 | 49.55384 | 18.27903 | 30123 ft | 420 kts | 309° |
| 2026-04-21 15:49 | 49.58911 | 18.20757 | 30122 ft | 421 kts | 309° |
| 2026-04-21 15:49 | 49.62458 | 18.13557 | 30121 ft | 422 kts | 310° |
| 2026-04-21 15:50 | 49.65413 | 18.07540 | 30120 ft | 422 kts | 310° |
| 2026-04-21 15:50 | 49.68966 | 18.00290 | 30125 ft | 422 kts | 310° |
| 2026-04-21 15:51 | 49.71915 | 17.92451 | 30126 ft | 426 kts | 299° |
| 2026-04-21 15:51 | 49.74549 | 17.84218 | 30135 ft | 426 kts | 297° |
| 2026-04-21 15:52 | 49.77170 | 17.76054 | 30147 ft | 426 kts | 298° |
| 2026-04-21 15:52 | 49.79801 | 17.67834 | 30151 ft | 426 kts | 298° |
| 2026-04-21 15:53 | 49.82409 | 17.59643 | 30159 ft | 426 kts | 298° |
| 2026-04-21 15:53 | 49.85023 | 17.51380 | 30161 ft | 426 kts | 297° |
| 2026-04-21 15:54 | 49.87612 | 17.43157 | 30155 ft | 426 kts | 298° |
| 2026-04-21 15:54 | 49.90220 | 17.34864 | 30163 ft | 426 kts | 298° |
| 2026-04-21 15:55 | 49.92812 | 17.26608 | 30171 ft | 426 kts | 297° |
| 2026-04-21 15:55 | 49.95414 | 17.18320 | 30170 ft | 426 kts | 298° |
| 2026-04-21 15:56 | 49.97999 | 17.10015 | 30172 ft | 426 kts | 297° |
| 2026-04-21 15:56 | 50.00571 | 17.01734 | 30160 ft | 427 kts | 298° |
| 2026-04-21 15:57 | 50.03154 | 16.93387 | 30151 ft | 428 kts | 298° |
| 2026-04-21 15:57 | 50.05721 | 16.85054 | 30157 ft | 429 kts | 297° |
| 2026-04-21 15:58 | 50.08302 | 16.76658 | 30169 ft | 429 kts | 297° |
| 2026-04-21 15:58 | 50.10882 | 16.68248 | 30163 ft | 429 kts | 297° |
| 2026-04-21 15:59 | 50.13436 | 16.59877 | 30168 ft | 430 kts | 297° |
| 2026-04-21 15:59 | 50.16005 | 16.51426 | 30156 ft | 432 kts | 298° |
| 2026-04-21 16:00 | 50.18571 | 16.42973 | 30157 ft | 435 kts | 298° |
| 2026-04-21 16:00 | 50.21152 | 16.34436 | 30167 ft | 437 kts | 298° |
| 2026-04-21 16:01 | 50.23748 | 16.25817 | 30163 ft | 438 kts | 298° |
| 2026-04-21 16:01 | 50.26326 | 16.17215 | 30170 ft | 439 kts | 298° |
| 2026-04-21 16:02 | 50.28893 | 16.08630 | 30170 ft | 440 kts | 298° |
| 2026-04-21 16:02 | 50.31467 | 16.00002 | 30178 ft | 440 kts | 298° |
| 2026-04-21 16:03 | 50.34041 | 15.91335 | 30185 ft | 441 kts | 298° |
| 2026-04-21 16:03 | 50.36635 | 15.82558 | 30173 ft | 441 kts | 298° |
| 2026-04-21 16:04 | 50.37899 | 15.78261 | 29981 ft | 435 kts | 298° |
| 2026-04-21 16:04 | 50.39155 | 15.73981 | 29688 ft | 428 kts | 298° |
| 2026-04-21 16:04 | 50.40399 | 15.69740 | 29393 ft | 425 kts | 298° |
| 2026-04-21 16:04 | 50.41632 | 15.65542 | 29103 ft | 422 kts | 298° |
| 2026-04-21 16:05 | 50.42856 | 15.61366 | 28793 ft | 418 kts | 298° |
| 2026-04-21 16:05 | 50.44066 | 15.57227 | 28318 ft | 414 kts | 298° |
| 2026-04-21 16:05 | 50.45237 | 15.53216 | 27885 ft | 411 kts | 298° |
| 2026-04-21 16:05 | 50.46438 | 15.49098 | 27436 ft | 408 kts | 298° |
| 2026-04-21 16:06 | 50.47614 | 15.45052 | 26995 ft | 405 kts | 298° |
| 2026-04-21 16:06 | 50.48782 | 15.41026 | 26584 ft | 403 kts | 297° |
| 2026-04-21 16:06 | 50.49929 | 15.37062 | 26168 ft | 400 kts | 297° |
| 2026-04-21 16:06 | 50.51065 | 15.33140 | 25750 ft | 398 kts | 297° |
| 2026-04-21 16:07 | 50.52209 | 15.29191 | 25334 ft | 395 kts | 297° |
| 2026-04-21 16:07 | 50.53345 | 15.25258 | 24900 ft | 393 kts | 297° |
| 2026-04-21 16:07 | 50.54474 | 15.21346 | 24477 ft | 391 kts | 297° |
| 2026-04-21 16:07 | 50.55568 | 15.17553 | 24043 ft | 390 kts | 297° |
| 2026-04-21 16:08 | 50.57783 | 15.09835 | 23107 ft | 386 kts | 297° |
| 2026-04-21 16:08 | 50.58882 | 15.05988 | 22653 ft | 383 kts | 297° |
| 2026-04-21 16:08 | 50.59971 | 15.02175 | 22201 ft | 380 kts | 297° |
| 2026-04-21 16:09 | 50.61052 | 14.98389 | 21747 ft | 376 kts | 297° |
| 2026-04-21 16:09 | 50.62125 | 14.94632 | 21295 ft | 373 kts | 297° |
| 2026-04-21 16:09 | 50.63170 | 14.90957 | 20836 ft | 371 kts | 297° |
| 2026-04-21 16:09 | 50.64223 | 14.87242 | 20393 ft | 369 kts | 297° |
| 2026-04-21 16:10 | 50.65271 | 14.83538 | 19943 ft | 367 kts | 297° |
| 2026-04-21 16:10 | 50.66293 | 14.79927 | 19503 ft | 365 kts | 296° |
| 2026-04-21 16:10 | 50.67326 | 14.76270 | 19046 ft | 363 kts | 296° |
| 2026-04-21 16:10 | 50.68351 | 14.72634 | 18599 ft | 361 kts | 296° |
| 2026-04-21 16:11 | 50.69372 | 14.69012 | 18114 ft | 359 kts | 296° |
| 2026-04-21 16:11 | 50.70384 | 14.65413 | 17666 ft | 356 kts | 296° |
| 2026-04-21 16:11 | 50.71383 | 14.61858 | 17207 ft | 352 kts | 296° |
| 2026-04-21 16:11 | 50.72360 | 14.58375 | 16775 ft | 349 kts | 296° |
| 2026-04-21 16:12 | 50.73021 | 14.56017 | 16485 ft | 347 kts | 296° |
| 2026-04-21 16:12 | 50.74313 | 14.51396 | 15922 ft | 344 kts | 296° |
| 2026-04-21 16:12 | 50.75279 | 14.47935 | 15495 ft | 342 kts | 296° |
| 2026-04-21 16:12 | 50.76223 | 14.44549 | 15082 ft | 340 kts | 296° |
| 2026-04-21 16:13 | 50.77170 | 14.41120 | 14660 ft | 339 kts | 295° |
| 2026-04-21 16:13 | 50.78080 | 14.37666 | 14242 ft | 338 kts | 294° |
| 2026-04-21 16:13 | 50.78962 | 14.34224 | 13797 ft | 337 kts | 294° |
| 2026-04-21 16:13 | 50.79820 | 14.30830 | 13371 ft | 335 kts | 294° |
| 2026-04-21 16:14 | 50.80683 | 14.27418 | 12956 ft | 333 kts | 294° |
| 2026-04-21 16:14 | 50.81542 | 14.24029 | 12541 ft | 330 kts | 294° |
| 2026-04-21 16:14 | 50.82399 | 14.20661 | 12126 ft | 328 kts | 294° |
| 2026-04-21 16:14 | 50.83243 | 14.17354 | 11716 ft | 327 kts | 295° |
| 2026-04-21 16:15 | 50.84097 | 14.14008 | 11133 ft | 330 kts | 294° |
| 2026-04-21 16:15 | 50.84960 | 14.10625 | 10708 ft | 328 kts | 294° |
| 2026-04-21 16:15 | 50.85813 | 14.07269 | 10275 ft | 327 kts | 295° |
| 2026-04-21 16:15 | 50.86657 | 14.03946 | 10005 ft | 320 kts | 294° |
| 2026-04-21 16:16 | 50.87470 | 14.00729 | 9878 ft | 309 kts | 294° |
| 2026-04-21 16:16 | 50.88258 | 13.97604 | 9737 ft | 300 kts | 295° |
| 2026-04-21 16:16 | 50.89013 | 13.94610 | 9482 ft | 294 kts | 295° |
| 2026-04-21 16:16 | 50.89764 | 13.91634 | 8911 ft | 289 kts | 294° |
| 2026-04-21 16:17 | 50.90508 | 13.88681 | 8323 ft | 286 kts | 294° |
| 2026-04-21 16:17 | 50.91241 | 13.85767 | 7746 ft | 283 kts | 294° |
| 2026-04-21 16:17 | 50.91967 | 13.82877 | 7165 ft | 280 kts | 295° |
| 2026-04-21 16:17 | 50.92681 | 13.80046 | 6595 ft | 278 kts | 296° |
| 2026-04-21 16:18 | 50.93380 | 13.77272 | 6034 ft | 275 kts | 294° |
| 2026-04-21 16:18 | 50.94099 | 13.74404 | 5439 ft | 273 kts | 295° |
| 2026-04-21 16:18 | 50.94800 | 13.71603 | 4954 ft | 269 kts | 295° |
| 2026-04-21 16:18 | 50.95465 | 13.68928 | 4776 ft | 252 kts | 295° |
| 2026-04-21 16:19 | 50.96098 | 13.66459 | 4609 ft | 234 kts | 302° |
| 2026-04-21 16:19 | 50.97018 | 13.64461 | 4543 ft | 218 kts | 319° |
| 2026-04-21 16:19 | 50.98199 | 13.63054 | 4426 ft | 207 kts | 335° |
| 2026-04-21 16:19 | 50.99543 | 13.62243 | 4019 ft | 207 kts | 350° |
| 2026-04-21 16:20 | 51.00986 | 13.62063 | 3633 ft | 208 kts | 7° |
| 2026-04-21 16:20 | 51.02396 | 13.62514 | 3357 ft | 205 kts | 20° |
| 2026-04-21 16:20 | 51.03644 | 13.63473 | 3090 ft | 193 kts | 34° |
| 2026-04-21 16:20 | 51.04668 | 13.64758 | 2861 ft | 186 kts | 40° |
| 2026-04-21 16:21 | 51.05624 | 13.66079 | 2652 ft | 173 kts | 41° |
| 2026-04-21 16:21 | 51.06488 | 13.67273 | 2408 ft | 162 kts | 40° |
| 2026-04-21 16:21 | 51.07324 | 13.68424 | 2120 ft | 155 kts | 40° |
| 2026-04-21 16:21 | 51.08111 | 13.69493 | 1942 ft | 141 kts | 40° |
| 2026-04-21 16:22 | 51.08842 | 13.70500 | 1767 ft | 137 kts | 41° |
| 2026-04-21 16:22 | 51.09551 | 13.71481 | 1567 ft | 134 kts | 39° |
| 2026-04-21 16:22 | 51.10253 | 13.72441 | 1334 ft | 136 kts | 39° |
| 2026-04-21 16:22 | 51.10964 | 13.73416 | 1164 ft | 135 kts | 40° |
| 2026-04-21 16:23 | 51.11682 | 13.74391 | 986 ft | 136 kts | 39° |
| 2026-04-21 16:23 | 51.12400 | 13.75374 | 784 ft | 136 kts | 39° |
| 2026-04-21 16:23 | 51.13072 | 13.76297 | 716 ft | 111 kts | 39° |
| 2026-04-21 16:23 | 51.13527 | 13.76922 | 714 ft | 61 kts | 41° |
| 2026-04-21 16:24 | 51.13733 | 13.77208 | 713 ft | 29 kts | 41° |
| 2026-04-21 16:24 | 51.13879 | 13.77409 | 716 ft | 19 kts | 41° |
| 2026-04-21 16:24 | 51.13879 | 13.77558 | 713 ft | 15 kts | 132° |
| 2026-04-21 16:24 | 51.13831 | 13.77646 | 714 ft | 10 kts | 131° |
| 2026-04-21 16:25 | 51.13770 | 13.77720 | 712 ft | 12 kts | 180° |
| 2026-04-21 16:25 | 51.13703 | 13.77630 | 714 ft | 14 kts | 221° |
| 2026-04-21 16:25 | 51.13621 | 13.77534 | 713 ft | 16 kts | 220° |
| 2026-04-21 16:25 | 51.13531 | 13.77411 | 715 ft | 18 kts | 220° |
| 2026-04-21 16:26 | 51.13436 | 13.77282 | 715 ft | 13 kts | 221° |
| 2026-04-21 16:26 | 51.13362 | 13.77179 | 713 ft | 15 kts | 221° |
| 2026-04-21 16:26 | 51.13279 | 13.77064 | 713 ft | 16 kts | 221° |
| 2026-04-21 16:26 | 51.13187 | 13.76937 | 715 ft | 19 kts | 221° |
| 2026-04-21 16:27 | 51.13097 | 13.76815 | 712 ft | 16 kts | 220° |
| 2026-04-21 16:27 | 51.13008 | 13.76694 | 713 ft | 18 kts | 221° |
| 2026-04-21 16:27 | 51.12931 | 13.76588 | 715 ft | 12 kts | 221° |
| 2026-04-21 16:27 | 51.12877 | 13.76513 | 713 ft | 0 kts | 221° |
| 2026-04-21 16:28 | 51.12875 | 13.76510 | 713 ft | 1 kts | 221° |
| 2026-04-21 16:28 | 51.12852 | 13.76478 | 714 ft | 7 kts | 221° |
| 2026-04-21 16:28 | 51.12802 | 13.76449 | 711 ft | 9 kts | 161° |
| 2026-04-21 16:29 | 51.12771 | 13.76497 | 712 ft | 10 kts | 130° |
| 2026-04-21 16:29 | 51.12704 | 13.76616 | 714 ft | 7 kts | 141° |
| 2026-04-21 16:29 | 51.12662 | 13.76590 | 714 ft | 5 kts | 221° |
| 2026-04-21 16:29 | 51.12637 | 13.76556 | 714 ft | 3 kts | 221° |
| 2026-04-21 16:30 | 51.12628 | 13.76543 | 714 ft | 0 kts | 221° |